createdAt,value
2023-07-08T00:00:17.195Z,64.79
2023-07-08T00:02:24.153Z,64.40
2023-07-08T00:04:27.066Z,64.64
2023-07-08T00:06:30.483Z,64.99
2023-07-08T00:08:33.537Z,65.21
2023-07-08T00:10:36.673Z,65.12
2023-07-08T00:12:39.853Z,64.87
2023-07-08T00:14:44.419Z,64.94
2023-07-08T00:16:47.540Z,65.43
2023-07-08T00:18:50.770Z,64.95
2023-07-08T00:20:53.923Z,65.65
2023-07-08T00:22:58.024Z,65.22
2023-07-08T00:25:01.076Z,66.26
2023-07-08T00:27:04.117Z,66.13
2023-07-08T00:29:10.732Z,65.53
2023-07-08T00:31:16.069Z,65.15
2023-07-08T00:33:19.144Z,65.23
2023-07-08T00:35:24.526Z,65.81
2023-07-08T00:37:30.798Z,65.01
2023-07-08T00:39:33.871Z,64.98
2023-07-08T00:41:41.132Z,65.33
2023-07-08T00:43:48.866Z,64.89
2023-07-08T00:46:02.607Z,64.63
2023-07-08T00:48:14.155Z,65.99
2023-07-08T00:50:17.485Z,64.75
2023-07-08T00:52:26.024Z,64.64
2023-07-08T00:54:30.075Z,65.16
2023-07-08T00:56:35.618Z,65.35
2023-07-08T00:58:41.434Z,64.20
2023-07-08T01:00:44.567Z,66.03
2023-07-08T01:02:56.518Z,65.63
2023-07-08T01:05:06.216Z,64.64
2023-07-08T01:07:09.371Z,64.62
2023-07-08T01:09:13.770Z,65.20
2023-07-08T01:11:16.809Z,66.63
2023-07-08T01:13:19.917Z,65.96
2023-07-08T01:15:26.248Z,65.20
2023-07-08T01:17:33.508Z,65.71
2023-07-08T01:19:37.157Z,66.13
2023-07-08T01:21:48.452Z,66.18
2023-07-08T01:23:51.441Z,65.71
2023-07-08T01:25:54.530Z,66.10
2023-07-08T01:27:59.258Z,67.38
2023-07-08T01:30:05.926Z,65.50
2023-07-08T01:32:11.845Z,67.37
2023-07-08T01:34:14.937Z,66.33
2023-07-08T01:36:18.033Z,66.75
2023-07-08T01:38:26.986Z,67.16
2023-07-08T01:40:31.875Z,67.67
2023-07-08T01:42:35.099Z,66.86
2023-07-08T01:44:38.845Z,66.52
2023-07-08T01:46:41.920Z,67.33
2023-07-08T01:48:49.097Z,67.17
2023-07-08T01:50:58.256Z,68.46
2023-07-08T01:53:02.750Z,67.76
2023-07-08T01:55:07.873Z,67.03
2023-07-08T01:57:11.009Z,67.42
2023-07-08T01:59:14.137Z,66.06
2023-07-08T02:01:17.324Z,66.05
2023-07-08T02:03:21.930Z,65.80
2023-07-08T02:05:25.392Z,67.22
2023-07-08T02:07:28.544Z,65.40
2023-07-08T02:09:31.636Z,66.65
2023-07-08T02:11:36.146Z,66.77
2023-07-08T02:13:39.317Z,68.96
2023-07-08T02:15:42.429Z,67.44
2023-07-08T02:17:45.571Z,67.08
2023-07-08T02:19:48.665Z,67.66
2023-07-08T02:21:53.925Z,68.14
2023-07-08T02:23:57.000Z,67.49
2023-07-08T02:26:00.051Z,68.81
2023-07-08T02:28:04.911Z,68.73
2023-07-08T02:30:09.234Z,68.48
2023-07-08T02:32:12.346Z,68.16
2023-07-08T02:34:16.917Z,67.77
2023-07-08T02:36:20.212Z,66.78
2023-07-08T02:38:23.302Z,66.97
2023-07-08T02:40:27.331Z,67.27
2023-07-08T02:42:31.099Z,68.19
2023-07-08T02:44:35.508Z,67.70
2023-07-08T02:46:38.603Z,68.79
2023-07-08T02:48:42.502Z,68.66
2023-07-08T02:50:45.577Z,69.42
2023-07-08T02:52:48.583Z,68.60
2023-07-08T02:54:51.596Z,69.05
2023-07-08T02:56:54.653Z,69.60
2023-07-08T02:58:57.974Z,68.79
2023-07-08T03:01:02.919Z,69.92
2023-07-08T03:03:06.892Z,68.88
2023-07-08T03:05:11.188Z,68.99
2023-07-08T03:07:15.974Z,69.90
2023-07-08T03:09:19.513Z,69.04
2023-07-08T03:11:23.238Z,69.42
2023-07-08T03:13:26.339Z,68.94
2023-07-08T03:15:30.740Z,69.45
2023-07-08T03:17:35.242Z,69.84
2023-07-08T03:19:38.480Z,69.83
2023-07-08T03:21:41.583Z,70.45
2023-07-08T03:23:44.776Z,70.00
2023-07-08T03:25:50.039Z,69.24
2023-07-08T03:27:53.873Z,69.27
2023-07-08T03:29:58.445Z,69.45
2023-07-08T03:32:01.543Z,70.12
2023-07-08T03:34:05.958Z,69.47
2023-07-08T03:36:13.580Z,70.06
2023-07-08T03:38:16.665Z,69.09
2023-07-08T03:40:18.868Z,70.23
2023-07-08T03:42:22.298Z,69.03
2023-07-08T03:44:25.807Z,70.57
2023-07-08T03:46:29.836Z,70.16
2023-07-08T03:48:32.939Z,69.89
2023-07-08T03:50:38.689Z,69.64
2023-07-08T03:52:41.740Z,69.55
2023-07-08T03:54:47.809Z,69.85
2023-07-08T03:56:51.025Z,69.93
2023-07-08T03:58:54.442Z,70.18
2023-07-08T04:00:58.801Z,70.74
2023-07-08T04:03:02.298Z,70.33
2023-07-08T04:05:05.799Z,71.26
2023-07-08T04:07:10.254Z,70.79
2023-07-08T04:09:13.454Z,70.61
2023-07-08T04:11:20.575Z,70.43
2023-07-08T04:13:23.999Z,70.43
2023-07-08T04:15:29.487Z,71.39
2023-07-08T04:17:32.703Z,71.09
2023-07-08T04:19:36.831Z,69.86
2023-07-08T04:21:39.046Z,68.90
2023-07-08T04:23:43.683Z,69.80
2023-07-08T04:25:47.037Z,70.53
2023-07-08T04:27:50.094Z,70.30
2023-07-08T04:29:53.145Z,70.23
2023-07-08T04:31:56.241Z,70.80
2023-07-08T04:33:59.331Z,70.85
2023-07-08T04:36:02.511Z,70.76
2023-07-08T04:38:10.299Z,70.28
2023-07-08T04:40:19.702Z,70.55
2023-07-08T04:42:22.961Z,71.59
2023-07-08T04:44:26.132Z,70.90
2023-07-08T04:46:38.311Z,68.95
2023-07-08T04:48:41.557Z,69.41
2023-07-08T04:50:46.560Z,70.37
2023-07-08T04:52:50.916Z,71.68
2023-07-08T04:54:54.170Z,72.82
2023-07-08T04:56:58.662Z,71.56
2023-07-08T04:59:02.728Z,71.43
2023-07-08T05:01:06.017Z,71.75
2023-07-08T05:03:09.185Z,71.92
2023-07-08T05:05:11.274Z,71.56
2023-07-08T05:07:14.375Z,71.36
2023-07-08T05:09:18.057Z,72.47
2023-07-08T05:11:21.156Z,70.24
2023-07-08T05:13:25.848Z,69.90
2023-07-08T05:15:29.059Z,70.21
2023-07-08T05:17:32.162Z,68.47
2023-07-08T05:19:35.203Z,69.42
2023-07-08T05:21:39.495Z,69.26
2023-07-08T05:23:42.886Z,67.36
2023-07-08T05:25:45.980Z,68.82
2023-07-08T05:27:49.557Z,66.42
2023-07-08T05:29:54.175Z,67.72
2023-07-08T05:31:57.764Z,67.40
2023-07-08T05:34:00.790Z,66.61
2023-07-08T05:36:03.998Z,67.14
2023-07-08T05:38:07.070Z,66.16
2023-07-08T05:40:11.065Z,66.06
2023-07-08T05:42:14.182Z,65.88
2023-07-08T05:44:17.168Z,65.59
2023-07-08T05:46:21.694Z,65.56
2023-07-08T05:48:24.733Z,64.31
2023-07-08T05:50:27.825Z,64.59
2023-07-08T05:52:30.995Z,64.54
2023-07-08T05:54:34.072Z,63.49
2023-07-08T05:56:37.262Z,62.12
2023-07-08T05:58:40.375Z,62.74
2023-07-08T06:00:43.607Z,61.93
2023-07-08T06:02:48.190Z,62.03
2023-07-08T06:04:51.345Z,62.58
2023-07-08T06:06:54.581Z,62.63
2023-07-08T06:08:57.641Z,61.68
2023-07-08T06:11:01.071Z,61.69
2023-07-08T06:13:04.336Z,60.76
2023-07-08T06:15:08.624Z,60.45
2023-07-08T06:17:11.787Z,59.03
2023-07-08T06:19:18.195Z,59.31
2023-07-08T06:21:21.357Z,60.01
2023-07-08T06:23:23.991Z,60.61
2023-07-08T06:25:27.082Z,60.75
2023-07-08T06:27:30.206Z,59.83
2023-07-08T06:29:33.420Z,58.35
2023-07-08T06:31:36.750Z,57.94
2023-07-08T06:33:39.779Z,57.16
2023-07-08T06:35:44.806Z,58.38
2023-07-08T06:37:47.849Z,58.19
2023-07-08T06:39:50.928Z,56.96
2023-07-08T06:41:53.062Z,55.75
2023-07-08T06:44:01.532Z,55.28
2023-07-08T06:46:08.487Z,54.04
2023-07-08T06:48:11.669Z,55.44
2023-07-08T06:50:14.782Z,54.25
2023-07-08T06:52:19.327Z,52.86
2023-07-08T06:54:22.471Z,52.85
2023-07-08T06:56:25.696Z,52.87
2023-07-08T06:58:28.703Z,51.98
2023-07-08T07:00:31.942Z,52.01
2023-07-08T07:02:35.599Z,51.18
2023-07-08T07:04:38.939Z,51.55
2023-07-08T07:06:41.990Z,50.99
2023-07-08T07:08:46.576Z,50.28
2023-07-08T07:10:49.707Z,49.74
2023-07-08T07:12:52.737Z,49.00
2023-07-08T07:14:56.028Z,49.47
2023-07-08T07:17:08.422Z,48.36
2023-07-08T07:19:12.430Z,48.54
2023-07-08T07:21:15.617Z,48.24
2023-07-08T07:23:18.837Z,47.72
2023-07-08T07:25:23.472Z,46.99
2023-07-08T07:27:26.568Z,47.33
2023-07-08T07:29:29.836Z,47.55
2023-07-08T07:31:33.570Z,49.25
2023-07-08T07:33:36.809Z,48.24
2023-07-08T07:35:44.459Z,48.37
2023-07-08T07:37:47.642Z,48.59
2023-07-08T07:39:50.818Z,48.60
2023-07-08T07:41:55.223Z,48.71
2023-07-08T07:43:58.274Z,48.48
2023-07-08T07:46:01.722Z,48.87
2023-07-08T07:48:06.138Z,49.01
2023-07-08T07:50:10.684Z,48.98
2023-07-08T07:52:13.948Z,48.84
2023-07-08T07:54:17.121Z,49.22
2023-07-08T07:56:20.166Z,49.05
2023-07-08T07:58:27.686Z,48.76
2023-07-08T08:00:31.210Z,49.20
2023-07-08T08:02:34.375Z,48.63
2023-07-08T08:04:37.579Z,48.18
2023-07-08T08:06:40.898Z,48.58
2023-07-08T08:08:43.995Z,48.44
2023-07-08T08:10:47.329Z,47.24
2023-07-08T08:12:53.984Z,48.94
2023-07-08T08:14:58.827Z,49.67
2023-07-08T08:17:02.080Z,49.67
2023-07-08T08:19:07.923Z,49.26
2023-07-08T08:21:12.036Z,48.50
2023-07-08T08:23:15.153Z,47.89
2023-07-08T08:25:22.200Z,48.78
2023-07-08T08:27:25.304Z,49.73
2023-07-08T08:29:28.612Z,48.96
2023-07-08T08:31:33.435Z,47.26
2023-07-08T08:33:36.472Z,47.98
2023-07-08T08:35:39.540Z,47.90
2023-07-08T08:37:42.682Z,48.23
2023-07-08T08:39:45.954Z,49.26
2023-07-08T08:41:49.245Z,49.16
2023-07-08T08:43:52.966Z,47.82
2023-07-08T08:46:00.362Z,47.15
2023-07-08T08:48:08.048Z,46.22
2023-07-08T08:50:25.886Z,47.56
2023-07-08T08:52:29.302Z,46.81
2023-07-08T08:54:32.991Z,46.41
2023-07-08T08:56:41.227Z,46.95
2023-07-08T08:58:47.081Z,46.95
2023-07-08T09:00:56.481Z,46.44
2023-07-08T09:03:03.575Z,46.50
2023-07-08T09:05:10.989Z,46.41
2023-07-08T09:07:16.960Z,46.33
2023-07-08T09:09:35.304Z,48.75
2023-07-08T09:11:43.087Z,46.70
2023-07-08T09:13:46.402Z,47.62
2023-07-08T09:15:50.972Z,46.59
2023-07-08T09:17:57.576Z,46.81
2023-07-08T09:20:08.114Z,46.79
2023-07-08T09:22:17.038Z,46.23
2023-07-08T09:24:23.079Z,45.91
2023-07-08T09:26:26.866Z,48.27
2023-07-08T09:28:39.750Z,46.32
2023-07-08T09:30:42.911Z,45.97
2023-07-08T09:32:46.125Z,45.76
2023-07-08T09:34:52.453Z,46.39
2023-07-08T09:36:55.568Z,45.67
2023-07-08T09:38:59.999Z,44.81
2023-07-08T09:41:03.357Z,46.12
2023-07-08T09:43:20.157Z,46.78
2023-07-08T09:45:25.270Z,45.99
2023-07-08T09:47:32.006Z,45.11
2023-07-08T09:49:37.173Z,45.84
2023-07-08T09:51:39.481Z,45.47
2023-07-08T09:53:42.669Z,44.40
2023-07-08T09:55:48.251Z,46.63
2023-07-08T09:57:52.933Z,46.53
2023-07-08T09:59:59.677Z,47.68
2023-07-08T10:02:04.799Z,47.23
2023-07-08T10:04:08.956Z,44.91
2023-07-08T10:06:19.529Z,44.61
2023-07-08T10:08:24.378Z,47.21
2023-07-08T10:10:31.368Z,44.87
2023-07-08T10:12:37.528Z,44.02
2023-07-08T10:14:45.398Z,44.81
2023-07-08T10:16:48.703Z,45.40
2023-07-08T10:18:51.891Z,44.90
2023-07-08T10:21:00.525Z,43.73
2023-07-08T10:23:11.062Z,44.73
2023-07-08T10:25:22.646Z,45.13
2023-07-08T10:27:30.611Z,46.19
2023-07-08T10:29:40.893Z,45.27
2023-07-08T10:31:49.350Z,45.77
2023-07-08T10:34:16.636Z,45.00
2023-07-08T10:36:26.065Z,44.62
2023-07-08T10:38:41.673Z,44.56
2023-07-08T10:40:50.238Z,45.64
2023-07-08T10:43:02.193Z,46.58
2023-07-08T10:45:12.398Z,45.54
2023-07-08T10:47:29.815Z,45.12
2023-07-08T10:49:52.901Z,44.11
2023-07-08T10:52:06.382Z,45.11
2023-07-08T10:54:26.931Z,44.49
2023-07-08T10:56:38.397Z,45.77
2023-07-08T10:58:55.316Z,45.20
2023-07-08T11:01:14.839Z,44.83
2023-07-08T11:03:40.822Z,44.84
2023-07-08T11:05:47.073Z,44.30
2023-07-08T11:07:53.415Z,45.86
2023-07-08T11:09:59.424Z,45.20
2023-07-08T11:12:05.539Z,45.00
2023-07-08T11:14:12.462Z,45.57
2023-07-08T11:16:22.022Z,45.11
2023-07-08T11:18:30.437Z,45.08
2023-07-08T11:20:39.557Z,47.60
2023-07-08T11:22:47.468Z,47.02
2023-07-08T11:24:52.400Z,46.74
2023-07-08T11:26:58.678Z,47.06
2023-07-08T11:29:03.034Z,46.34
2023-07-08T11:31:07.105Z,46.62
2023-07-08T11:33:15.633Z,46.21
2023-07-08T11:35:21.897Z,46.58
2023-07-08T11:37:26.790Z,47.27
2023-07-08T11:39:34.844Z,47.50
2023-07-08T11:41:38.041Z,46.81
2023-07-08T11:43:47.460Z,45.88
2023-07-08T11:45:51.091Z,45.84
2023-07-08T11:47:55.332Z,45.28
2023-07-08T11:49:59.896Z,46.00
2023-07-08T11:52:04.660Z,46.34
2023-07-08T11:54:15.354Z,47.02
2023-07-08T11:56:24.217Z,47.29
2023-07-08T11:58:29.260Z,46.32
2023-07-08T12:00:34.687Z,45.30
2023-07-08T12:02:51.030Z,45.72
2023-07-08T12:04:59.933Z,45.32
2023-07-08T12:07:24.409Z,45.28
2023-07-08T12:09:31.343Z,46.13
2023-07-08T12:11:36.560Z,47.17
2023-07-08T12:13:41.135Z,46.30
2023-07-08T12:15:43.366Z,47.47
2023-07-08T12:17:47.668Z,45.48
2023-07-08T12:19:50.601Z,45.54
2023-07-08T12:21:55.315Z,45.84
2023-07-08T12:24:05.425Z,46.29
2023-07-08T12:26:10.882Z,44.36
2023-07-08T12:28:14.735Z,44.33
2023-07-08T12:30:18.623Z,44.91
2023-07-08T12:32:26.595Z,46.26
2023-07-08T12:34:30.813Z,46.91
2023-07-08T12:36:35.921Z,45.34
2023-07-08T12:38:42.270Z,44.87
2023-07-08T12:40:45.805Z,44.93
2023-07-08T12:42:49.126Z,44.65
2023-07-08T12:44:52.211Z,44.31
2023-07-08T12:46:56.447Z,45.12
2023-07-08T12:48:59.618Z,45.39
2023-07-08T12:51:02.960Z,44.11
2023-07-08T12:53:10.564Z,44.55
2023-07-08T12:55:16.001Z,44.44
2023-07-08T12:57:19.865Z,44.61
2023-07-08T12:59:25.207Z,44.61
2023-07-08T13:01:32.177Z,45.10
2023-07-08T13:03:37.971Z,46.19
2023-07-08T13:05:42.257Z,44.47
2023-07-08T13:07:45.836Z,44.18
2023-07-08T13:09:50.640Z,45.22
2023-07-08T13:11:57.083Z,44.54
2023-07-08T13:14:03.564Z,44.85
2023-07-08T13:16:07.194Z,44.36
2023-07-08T13:18:16.833Z,44.85
2023-07-08T13:20:20.925Z,45.20
2023-07-08T13:22:24.826Z,44.76
2023-07-08T13:24:32.531Z,45.41
2023-07-08T13:26:35.634Z,44.28
2023-07-08T13:28:41.468Z,44.88
2023-07-08T13:30:53.696Z,44.25
2023-07-08T13:32:57.783Z,44.86
2023-07-08T13:35:00.979Z,44.97
2023-07-08T13:37:04.147Z,44.79
2023-07-08T13:39:08.582Z,43.09
2023-07-08T13:41:13.563Z,43.63
2023-07-08T13:43:16.825Z,43.54
2023-07-08T13:45:25.584Z,44.63
2023-07-08T13:47:30.550Z,44.77
2023-07-08T13:49:42.398Z,44.49
2023-07-08T13:51:46.862Z,44.75
2023-07-08T13:53:52.046Z,45.64
2023-07-08T13:56:03.084Z,45.70
2023-07-08T13:58:11.531Z,43.95
2023-07-08T14:00:15.884Z,44.01
2023-07-08T14:02:23.418Z,45.11
2023-07-08T14:04:35.417Z,45.33
2023-07-08T14:06:40.637Z,44.07
2023-07-08T14:08:43.753Z,43.77
2023-07-08T14:10:45.927Z,44.03
2023-07-08T14:12:49.003Z,43.09
2023-07-08T14:14:52.497Z,43.47
2023-07-08T14:16:56.936Z,44.26
2023-07-08T14:19:04.595Z,44.74
2023-07-08T14:21:07.664Z,44.63
2023-07-08T14:23:12.108Z,43.52
2023-07-08T14:25:16.545Z,44.60
2023-07-08T14:27:20.234Z,44.81
2023-07-08T14:29:23.568Z,43.58
2023-07-08T14:31:27.963Z,43.96
2023-07-08T14:33:31.279Z,43.74
2023-07-08T14:35:35.757Z,42.14
2023-07-08T14:37:39.024Z,41.81
2023-07-08T14:39:42.205Z,42.69
2023-07-08T14:41:46.691Z,43.21
2023-07-08T14:43:49.790Z,43.75
2023-07-08T14:45:56.000Z,43.76
2023-07-08T14:47:59.155Z,43.22
2023-07-08T14:50:02.612Z,42.57
2023-07-08T14:52:08.361Z,43.36
2023-07-08T14:54:11.471Z,42.91
2023-07-08T14:56:17.370Z,43.46
2023-07-08T14:58:24.250Z,43.17
2023-07-08T15:00:27.364Z,43.07
2023-07-08T15:02:30.434Z,43.01
2023-07-08T15:04:33.618Z,43.22
2023-07-08T15:06:36.671Z,42.58
2023-07-08T15:08:41.193Z,42.10
2023-07-08T15:10:48.344Z,43.07
2023-07-08T15:12:51.738Z,43.11
2023-07-08T15:14:54.819Z,42.88
2023-07-08T15:16:57.957Z,44.10
2023-07-08T15:19:01.157Z,43.67
2023-07-08T15:21:04.785Z,42.94
2023-07-08T15:23:09.043Z,43.10
2023-07-08T15:25:15.195Z,44.06
2023-07-08T15:27:21.044Z,44.42
2023-07-08T15:29:25.647Z,44.26
2023-07-08T15:31:30.743Z,44.85
2023-07-08T15:33:33.876Z,44.60
2023-07-08T15:35:37.007Z,44.79
2023-07-08T15:37:40.260Z,44.31
2023-07-08T15:39:43.532Z,43.65
2023-07-08T15:41:48.009Z,44.10
2023-07-08T15:43:51.451Z,44.96
2023-07-08T15:45:55.273Z,44.45
2023-07-08T15:47:58.838Z,44.57
2023-07-08T15:50:01.990Z,45.15
2023-07-08T15:52:06.524Z,44.91
2023-07-08T15:54:09.671Z,43.91
2023-07-08T15:56:14.648Z,44.60
2023-07-08T15:58:27.401Z,44.17
2023-07-08T16:00:33.455Z,44.83
2023-07-08T16:02:38.133Z,44.82
2023-07-08T16:04:41.354Z,45.24
2023-07-08T16:06:44.499Z,45.56
2023-07-08T16:08:48.026Z,44.88
2023-07-08T16:10:53.857Z,44.49
2023-07-08T16:12:58.471Z,45.65
2023-07-08T16:15:03.572Z,45.95
2023-07-08T16:17:10.438Z,45.98
2023-07-08T16:19:14.764Z,46.26
2023-07-08T16:21:18.118Z,46.50
2023-07-08T16:23:22.206Z,46.24
2023-07-08T16:25:30.378Z,45.26
2023-07-08T16:27:33.554Z,45.32
2023-07-08T16:29:36.666Z,45.59
2023-07-08T16:31:41.204Z,45.23
2023-07-08T16:33:44.468Z,46.85
2023-07-08T16:35:47.618Z,46.83
2023-07-08T16:37:52.125Z,46.17
2023-07-08T16:39:56.836Z,47.04
2023-07-08T16:41:59.900Z,46.53
2023-07-08T16:44:03.218Z,45.61
2023-07-08T16:46:06.447Z,46.15
2023-07-08T16:48:11.096Z,47.00
2023-07-08T16:50:15.096Z,45.09
2023-07-08T16:52:19.121Z,46.88
2023-07-08T16:54:25.233Z,46.39
2023-07-08T16:56:28.378Z,45.10
2023-07-08T16:58:31.566Z,46.14
2023-07-08T17:00:34.941Z,45.34
2023-07-08T17:02:38.337Z,45.43
2023-07-08T17:04:43.126Z,46.88
2023-07-08T17:06:47.019Z,46.09
2023-07-08T17:08:50.403Z,46.53
2023-07-08T17:10:54.800Z,45.58
2023-07-08T17:12:57.892Z,45.95
2023-07-08T17:15:00.958Z,45.65
2023-07-08T17:17:05.105Z,45.62
2023-07-08T17:19:08.203Z,44.81
2023-07-08T17:21:15.645Z,45.79
2023-07-08T17:23:20.245Z,45.31
2023-07-08T17:25:25.516Z,45.18
2023-07-08T17:27:28.499Z,45.53
2023-07-08T17:29:31.626Z,46.79
2023-07-08T17:31:47.179Z,46.83
2023-07-08T17:33:57.028Z,46.23
2023-07-08T17:36:00.206Z,46.54
2023-07-08T17:38:04.629Z,46.90
2023-07-08T17:40:14.778Z,46.16
2023-07-08T17:42:17.868Z,47.71
2023-07-08T17:44:21.474Z,47.53
2023-07-08T17:46:27.379Z,47.66
2023-07-08T17:48:30.719Z,47.24
2023-07-08T17:50:33.858Z,48.44
2023-07-08T17:52:36.996Z,47.59
2023-07-08T17:54:41.454Z,48.58
2023-07-08T17:56:47.477Z,47.48
2023-07-08T17:58:51.763Z,47.42
2023-07-08T18:00:54.900Z,47.75
2023-07-08T18:02:58.607Z,48.36
2023-07-08T18:05:01.652Z,48.60
2023-07-08T18:07:05.130Z,48.54
2023-07-08T18:09:07.686Z,48.14
2023-07-08T18:11:13.983Z,48.53
2023-07-08T18:13:20.870Z,48.38
2023-07-08T18:15:26.177Z,49.08
2023-07-08T18:17:29.369Z,49.26
2023-07-08T18:19:32.473Z,49.81
2023-07-08T18:21:35.637Z,49.32
2023-07-08T18:23:40.095Z,48.50
2023-07-08T18:25:43.244Z,48.97
2023-07-08T18:27:48.445Z,49.84
2023-07-08T18:29:51.545Z,49.88
2023-07-08T18:31:54.770Z,48.87
2023-07-08T18:33:57.981Z,48.78
2023-07-08T18:36:01.385Z,49.22
2023-07-08T18:38:04.696Z,49.86
2023-07-08T18:40:10.083Z,51.25
2023-07-08T18:42:13.283Z,51.46
2023-07-08T18:44:26.438Z,51.47
2023-07-08T18:46:29.466Z,50.81
2023-07-08T18:48:32.560Z,51.54
2023-07-08T18:50:36.164Z,52.28
2023-07-08T18:52:38.658Z,51.49
2023-07-08T18:54:41.736Z,51.77
2023-07-08T18:56:45.060Z,51.81
2023-07-08T18:58:48.682Z,52.44
2023-07-08T19:00:53.600Z,52.93
2023-07-08T19:03:00.119Z,52.40
2023-07-08T19:05:02.392Z,53.18
2023-07-08T19:07:07.309Z,52.89
2023-07-08T19:09:10.766Z,53.75
2023-07-08T19:11:18.708Z,54.25
2023-07-08T19:13:23.410Z,54.83
2023-07-08T19:15:28.688Z,54.49
2023-07-08T19:17:33.189Z,54.93
2023-07-08T19:19:36.602Z,55.04
2023-07-08T19:21:40.459Z,55.62
2023-07-08T19:23:46.680Z,56.30
2023-07-08T19:25:50.050Z,55.79
2023-07-08T19:27:54.180Z,56.03
2023-07-08T19:29:57.393Z,56.81
2023-07-08T19:32:00.593Z,56.42
2023-07-08T19:34:06.945Z,56.64
2023-07-08T19:36:10.538Z,57.12
2023-07-08T19:38:16.068Z,57.25
2023-07-08T19:40:22.081Z,58.25
2023-07-08T19:42:26.946Z,58.68
2023-07-08T19:44:30.148Z,58.29
2023-07-08T19:46:32.493Z,57.57
2023-07-08T19:48:36.065Z,57.26
2023-07-08T19:50:40.923Z,56.51
2023-07-08T19:52:44.510Z,57.05
2023-07-08T19:54:47.616Z,57.46
2023-07-08T19:56:50.703Z,58.26
2023-07-08T19:58:53.803Z,58.34
2023-07-08T20:00:56.911Z,59.28
2023-07-08T20:03:00.698Z,60.50
2023-07-08T20:05:03.848Z,59.50
2023-07-08T20:07:13.320Z,60.46
2023-07-08T20:09:16.823Z,60.97
2023-07-08T20:11:19.474Z,60.11
2023-07-08T20:13:23.095Z,60.82
2023-07-08T20:15:27.598Z,61.06
2023-07-08T20:17:30.716Z,61.92
2023-07-08T20:19:33.921Z,62.41
2023-07-08T20:21:37.033Z,62.92
2023-07-08T20:23:41.755Z,61.86
2023-07-08T20:25:46.280Z,62.44
2023-07-08T20:27:50.127Z,62.83
2023-07-08T20:29:53.191Z,63.08
2023-07-08T20:31:56.293Z,62.84
2023-07-08T20:33:59.689Z,62.08
2023-07-08T20:36:03.111Z,63.11
2023-07-08T20:38:07.238Z,63.38
2023-07-08T20:40:20.937Z,63.59
2023-07-08T20:42:24.035Z,64.12
2023-07-08T20:44:27.083Z,64.04
2023-07-08T20:46:30.618Z,64.66
2023-07-08T20:48:33.758Z,64.49
2023-07-08T20:50:36.906Z,63.78
2023-07-08T20:52:40.005Z,64.32
2023-07-08T20:54:43.082Z,64.29
2023-07-08T20:56:47.598Z,64.10
2023-07-08T20:58:50.656Z,64.29
2023-07-08T21:00:54.432Z,64.02
2023-07-08T21:02:58.472Z,64.90
2023-07-08T21:05:02.492Z,64.81
2023-07-08T21:07:06.248Z,64.33
2023-07-08T21:09:12.256Z,64.59
2023-07-08T21:11:15.388Z,64.74
2023-07-08T21:13:20.295Z,64.61
2023-07-08T21:15:35.029Z,65.01
2023-07-08T21:17:40.204Z,64.79
2023-07-08T21:19:43.510Z,64.62
2023-07-08T21:21:46.576Z,64.65
2023-07-08T21:23:50.139Z,64.63
2023-07-08T21:25:54.682Z,65.17
2023-07-08T21:27:57.757Z,65.51
2023-07-08T21:30:02.262Z,65.79
2023-07-08T21:32:06.069Z,65.91
2023-07-08T21:34:10.046Z,65.76
2023-07-08T21:36:23.391Z,66.64
2023-07-08T21:38:27.565Z,66.13
2023-07-08T21:40:35.757Z,66.17
2023-07-08T21:42:38.835Z,66.30
2023-07-08T21:44:42.026Z,66.06
2023-07-08T21:46:46.923Z,66.55
2023-07-08T21:48:50.294Z,66.78
2023-07-08T21:50:55.746Z,67.05
2023-07-08T21:53:01.527Z,67.43
2023-07-08T21:55:06.417Z,67.16
2023-07-08T21:57:14.901Z,67.91
2023-07-08T21:59:19.213Z,68.00
2023-07-08T22:01:24.647Z,68.34
2023-07-08T22:03:29.905Z,67.47
2023-07-08T22:05:33.069Z,68.51
2023-07-08T22:07:36.648Z,68.50
2023-07-08T22:09:40.450Z,68.26
2023-07-08T22:11:47.452Z,68.59
2023-07-08T22:13:50.838Z,67.99
2023-07-08T22:15:54.979Z,68.49
2023-07-08T22:18:00.124Z,68.38
2023-07-08T22:20:07.299Z,67.89
2023-07-08T22:22:11.850Z,68.23
2023-07-08T22:24:14.930Z,68.84
2023-07-08T22:26:18.254Z,68.87
2023-07-08T22:28:21.821Z,68.60
2023-07-08T22:30:25.329Z,68.97
2023-07-08T22:32:28.623Z,70.02
2023-07-08T22:34:31.732Z,70.06
2023-07-08T22:36:36.722Z,70.01
2023-07-08T22:38:39.774Z,69.26
2023-07-08T22:40:44.204Z,70.40
2023-07-08T22:42:46.303Z,70.78
2023-07-08T22:44:49.385Z,71.08
2023-07-08T22:46:52.465Z,69.98
2023-07-08T22:48:58.776Z,69.81
2023-07-08T22:51:02.986Z,69.97
2023-07-08T22:53:09.844Z,69.45
2023-07-08T22:55:15.760Z,70.44
2023-07-08T22:57:18.775Z,70.15
2023-07-08T22:59:21.927Z,70.24
2023-07-08T23:01:24.997Z,70.33
2023-07-08T23:03:28.286Z,70.97
2023-07-08T23:05:39.911Z,70.03
2023-07-08T23:07:43.413Z,70.77
2023-07-08T23:09:47.923Z,72.04
2023-07-08T23:11:50.120Z,71.29
2023-07-08T23:13:53.363Z,71.87
2023-07-08T23:15:57.146Z,71.63
2023-07-08T23:18:00.439Z,71.57
2023-07-08T23:20:03.805Z,71.75
2023-07-08T23:22:09.936Z,71.94
2023-07-08T23:24:13.159Z,72.61
2023-07-08T23:26:19.373Z,72.67
2023-07-08T23:28:22.455Z,72.66
2023-07-08T23:30:25.748Z,72.36
2023-07-08T23:32:28.888Z,72.20
2023-07-08T23:34:32.025Z,72.89
2023-07-08T23:36:37.768Z,73.07
2023-07-08T23:38:40.779Z,72.85
2023-07-08T23:40:44.608Z,72.73
2023-07-08T23:42:49.029Z,72.51
2023-07-08T23:44:51.215Z,73.31
2023-07-08T23:46:56.801Z,73.31
2023-07-08T23:49:02.636Z,73.73
2023-07-08T23:51:05.646Z,73.44
2023-07-08T23:53:09.637Z,73.03
2023-07-08T23:55:13.673Z,73.44
2023-07-08T23:57:18.897Z,73.21
2023-07-08T23:59:24.317Z,74.14
